Warren, Illinois
Current Conditions -  °F | °C
As of 8:15 AM on Wednesday 28 Jan 2015 (Local Time) from KEFT Reporting Station
Overcast Overcast  
Wind Chill: 15°   Ceiling: 900
Heat Index: 27°   Visibility: 7mi
Dew Point: 23°   Wind: 15mph
Humidity: 86%   Direction: 160°SSE
Pressure: 30.18"   Gusts: NA
Location:  42.5°N, 89.99°W
Report Text: KEFT 281415Z AUTO 16013KT 7SM OVC009 M03/M05 A3018 RMK AO2
Loading
Personal Weather Stations






























Interactive Weather Map New forecast layout! Learn more

10-Day Weather Forecast

Advertisements
Track Severe Weather on mobile